sensor_id;sensor_type;location;lat;lon;timestamp;P1;durP1;ratioP1;P2;durP2;ratioP2
37785;SDS011;23625;48.784;9.336;2023-05-29T00:02:04;13.82;;;5.47;;
37785;SDS011;23625;48.784;9.336;2023-05-29T00:04:30;10.25;;;4.18;;
37785;SDS011;23625;48.784;9.336;2023-05-29T00:06:56;7.97;;;4.00;;
37785;SDS011;23625;48.784;9.336;2023-05-29T00:09:21;9.52;;;4.32;;
37785;SDS011;23625;48.784;9.336;2023-05-29T00:11:47;8.95;;;4.28;;
37785;SDS011;23625;48.784;9.336;2023-05-29T00:14:16;10.52;;;4.72;;
37785;SDS011;23625;48.784;9.336;2023-05-29T00:16:44;9.48;;;4.55;;
37785;SDS011;23625;48.784;9.336;2023-05-29T00:19:11;8.80;;;4.38;;
37785;SDS011;23625;48.784;9.336;2023-05-29T00:21:38;9.93;;;4.30;;
37785;SDS011;23625;48.784;9.336;2023-05-29T00:24:03;9.70;;;3.83;;
37785;SDS011;23625;48.784;9.336;2023-05-29T00:26:29;9.13;;;4.22;;
37785;SDS011;23625;48.784;9.336;2023-05-29T00:28:55;10.60;;;4.30;;
37785;SDS011;23625;48.784;9.336;2023-05-29T00:31:21;9.77;;;4.00;;
37785;SDS011;23625;48.784;9.336;2023-05-29T00:33:46;12.82;;;4.22;;
37785;SDS011;23625;48.784;9.336;2023-05-29T00:36:12;9.52;;;4.70;;
37785;SDS011;23625;48.784;9.336;2023-05-29T00:38:38;11.73;;;4.18;;
37785;SDS011;23625;48.784;9.336;2023-05-29T00:41:03;9.00;;;4.43;;
37785;SDS011;23625;48.784;9.336;2023-05-29T00:43:29;10.85;;;4.30;;
37785;SDS011;23625;48.784;9.336;2023-05-29T00:45:55;9.35;;;4.65;;
37785;SDS011;23625;48.784;9.336;2023-05-29T00:48:21;8.02;;;4.25;;
37785;SDS011;23625;48.784;9.336;2023-05-29T00:50:47;13.23;;;5.05;;
37785;SDS011;23625;48.784;9.336;2023-05-29T00:53:13;10.23;;;4.32;;
37785;SDS011;23625;48.784;9.336;2023-05-29T00:55:39;12.05;;;4.68;;
37785;SDS011;23625;48.784;9.336;2023-05-29T00:58:04;10.60;;;5.00;;
37785;SDS011;23625;48.784;9.336;2023-05-29T01:00:30;12.25;;;4.30;;
37785;SDS011;23625;48.784;9.336;2023-05-29T01:02:58;12.38;;;5.18;;
37785;SDS011;23625;48.784;9.336;2023-05-29T01:05:27;9.55;;;4.03;;
37785;SDS011;23625;48.784;9.336;2023-05-29T01:07:53;11.57;;;4.22;;
37785;SDS011;23625;48.784;9.336;2023-05-29T01:10:19;8.48;;;4.15;;
37785;SDS011;23625;48.784;9.336;2023-05-29T01:21:11;14.93;;;4.28;;
37785;SDS011;23625;48.784;9.336;2023-05-29T01:29:07;6.55;;;3.33;;
37785;SDS011;23625;48.784;9.336;2023-05-29T01:31:35;10.77;;;4.80;;
37785;SDS011;23625;48.784;9.336;2023-05-29T01:34:02;8.75;;;3.97;;
37785;SDS011;23625;48.784;9.336;2023-05-29T01:36:28;8.63;;;4.00;;
37785;SDS011;23625;48.784;9.336;2023-05-29T01:38:55;9.38;;;4.35;;
37785;SDS011;23625;48.784;9.336;2023-05-29T01:41:22;11.63;;;4.80;;
37785;SDS011;23625;48.784;9.336;2023-05-29T01:43:49;11.63;;;4.40;;
37785;SDS011;23625;48.784;9.336;2023-05-29T01:46:16;9.30;;;4.30;;
37785;SDS011;23625;48.784;9.336;2023-05-29T01:48:44;8.05;;;3.90;;
37785;SDS011;23625;48.784;9.336;2023-05-29T01:51:10;11.73;;;4.18;;
37785;SDS011;23625;48.784;9.336;2023-05-29T01:53:37;8.63;;;4.07;;
37785;SDS011;23625;48.784;9.336;2023-05-29T01:56:04;12.93;;;5.55;;
37785;SDS011;23625;48.784;9.336;2023-05-29T01:58:31;9.23;;;4.75;;
37785;SDS011;23625;48.784;9.336;2023-05-29T02:00:57;6.93;;;3.55;;
37785;SDS011;23625;48.784;9.336;2023-05-29T02:03:23;13.55;;;4.38;;
37785;SDS011;23625;48.784;9.336;2023-05-29T02:05:49;8.70;;;4.35;;
37785;SDS011;23625;48.784;9.336;2023-05-29T02:08:15;12.60;;;4.15;;
37785;SDS011;23625;48.784;9.336;2023-05-29T02:10:41;7.68;;;3.85;;
37785;SDS011;23625;48.784;9.336;2023-05-29T02:13:06;11.93;;;4.60;;
37785;SDS011;23625;48.784;9.336;2023-05-29T02:15:32;8.23;;;3.95;;
37785;SDS011;23625;48.784;9.336;2023-05-29T02:17:57;9.23;;;4.30;;
37785;SDS011;23625;48.784;9.336;2023-05-29T02:20:25;11.18;;;4.65;;
37785;SDS011;23625;48.784;9.336;2023-05-29T02:22:52;13.75;;;4.68;;
37785;SDS011;23625;48.784;9.336;2023-05-29T02:25:17;8.93;;;4.45;;
37785;SDS011;23625;48.784;9.336;2023-05-29T02:27:43;12.60;;;4.10;;
37785;SDS011;23625;48.784;9.336;2023-05-29T02:30:09;10.45;;;4.47;;
37785;SDS011;23625;48.784;9.336;2023-05-29T02:32:35;9.80;;;4.32;;
37785;SDS011;23625;48.784;9.336;2023-05-29T02:35:01;12.68;;;4.32;;
37785;SDS011;23625;48.784;9.336;2023-05-29T02:37:27;15.27;;;4.72;;
37785;SDS011;23625;48.784;9.336;2023-05-29T02:39:53;9.27;;;4.63;;
37785;SDS011;23625;48.784;9.336;2023-05-29T02:42:18;8.88;;;4.40;;
37785;SDS011;23625;48.784;9.336;2023-05-29T02:44:44;12.98;;;4.63;;
37785;SDS011;23625;48.784;9.336;2023-05-29T02:47:10;8.48;;;4.40;;
37785;SDS011;23625;48.784;9.336;2023-05-29T02:49:35;13.65;;;5.07;;
37785;SDS011;23625;48.784;9.336;2023-05-29T02:52:01;8.38;;;3.75;;
37785;SDS011;23625;48.784;9.336;2023-05-29T02:54:26;9.18;;;4.28;;
37785;SDS011;23625;48.784;9.336;2023-05-29T02:56:52;11.35;;;4.40;;
37785;SDS011;23625;48.784;9.336;2023-05-29T02:59:18;11.05;;;4.60;;
37785;SDS011;23625;48.784;9.336;2023-05-29T03:01:44;8.43;;;4.32;;
37785;SDS011;23625;48.784;9.336;2023-05-29T03:04:10;10.45;;;4.28;;
37785;SDS011;23625;48.784;9.336;2023-05-29T03:06:36;9.05;;;4.28;;
37785;SDS011;23625;48.784;9.336;2023-05-29T03:09:05;23.00;;;6.43;;
37785;SDS011;23625;48.784;9.336;2023-05-29T03:11:31;11.57;;;4.85;;
37785;SDS011;23625;48.784;9.336;2023-05-29T03:13:58;7.97;;;4.32;;
37785;SDS011;23625;48.784;9.336;2023-05-29T03:16:23;9.32;;;4.25;;
37785;SDS011;23625;48.784;9.336;2023-05-29T03:18:50;11.80;;;4.55;;
37785;SDS011;23625;48.784;9.336;2023-05-29T03:21:16;11.95;;;4.47;;
37785;SDS011;23625;48.784;9.336;2023-05-29T03:23:42;8.20;;;4.50;;
37785;SDS011;23625;48.784;9.336;2023-05-29T03:26:07;9.02;;;4.68;;
37785;SDS011;23625;48.784;9.336;2023-05-29T03:28:33;14.45;;;4.88;;
37785;SDS011;23625;48.784;9.336;2023-05-29T03:30:59;14.85;;;4.57;;
37785;SDS011;23625;48.784;9.336;2023-05-29T03:33:25;9.68;;;4.90;;
37785;SDS011;23625;48.784;9.336;2023-05-29T03:35:50;8.98;;;4.18;;
37785;SDS011;23625;48.784;9.336;2023-05-29T03:38:16;12.73;;;4.50;;
37785;SDS011;23625;48.784;9.336;2023-05-29T03:40:42;16.77;;;5.47;;
37785;SDS011;23625;48.784;9.336;2023-05-29T03:43:07;10.15;;;5.25;;
37785;SDS011;23625;48.784;9.336;2023-05-29T03:45:33;12.88;;;5.22;;
37785;SDS011;23625;48.784;9.336;2023-05-29T03:47:58;10.77;;;5.18;;
37785;SDS011;23625;48.784;9.336;2023-05-29T03:50:24;13.98;;;4.43;;
37785;SDS011;23625;48.784;9.336;2023-05-29T03:52:50;12.18;;;4.72;;
37785;SDS011;23625;48.784;9.336;2023-05-29T03:55:16;11.70;;;5.05;;
37785;SDS011;23625;48.784;9.336;2023-05-29T03:57:41;8.48;;;4.60;;
37785;SDS011;23625;48.784;9.336;2023-05-29T04:00:08;10.32;;;4.85;;
37785;SDS011;23625;48.784;9.336;2023-05-29T04:02:37;14.40;;;5.15;;
37785;SDS011;23625;48.784;9.336;2023-05-29T04:05:07;10.48;;;4.70;;
37785;SDS011;23625;48.784;9.336;2023-05-29T04:07:33;10.13;;;4.68;;
37785;SDS011;23625;48.784;9.336;2023-05-29T04:10:02;11.40;;;5.13;;
37785;SDS011;23625;48.784;9.336;2023-05-29T04:12:27;8.40;;;4.35;;
37785;SDS011;23625;48.784;9.336;2023-05-29T04:14:53;16.55;;;5.28;;
37785;SDS011;23625;48.784;9.336;2023-05-29T04:17:19;10.98;;;4.47;;
37785;SDS011;23625;48.784;9.336;2023-05-29T04:19:44;9.82;;;4.65;;
37785;SDS011;23625;48.784;9.336;2023-05-29T04:22:10;9.27;;;4.43;;
37785;SDS011;23625;48.784;9.336;2023-05-29T04:24:35;12.13;;;5.10;;
37785;SDS011;23625;48.784;9.336;2023-05-29T04:27:01;11.23;;;4.43;;
37785;SDS011;23625;48.784;9.336;2023-05-29T04:29:28;9.55;;;4.63;;
37785;SDS011;23625;48.784;9.336;2023-05-29T04:31:53;7.68;;;4.43;;
37785;SDS011;23625;48.784;9.336;2023-05-29T04:34:20;8.00;;;4.18;;
37785;SDS011;23625;48.784;9.336;2023-05-29T04:36:46;13.93;;;4.55;;
37785;SDS011;23625;48.784;9.336;2023-05-29T04:39:12;11.35;;;4.25;;
37785;SDS011;23625;48.784;9.336;2023-05-29T04:41:39;10.00;;;4.90;;
37785;SDS011;23625;48.784;9.336;2023-05-29T04:44:05;11.60;;;4.47;;
37785;SDS011;23625;48.784;9.336;2023-05-29T04:46:32;8.18;;;4.38;;
37785;SDS011;23625;48.784;9.336;2023-05-29T04:48:59;8.45;;;4.80;;
37785;SDS011;23625;48.784;9.336;2023-05-29T04:51:27;7.78;;;3.78;;
37785;SDS011;23625;48.784;9.336;2023-05-29T04:53:54;10.43;;;4.50;;
37785;SDS011;23625;48.784;9.336;2023-05-29T04:56:21;11.55;;;4.47;;
37785;SDS011;23625;48.784;9.336;2023-05-29T04:58:47;8.32;;;4.63;;
37785;SDS011;23625;48.784;9.336;2023-05-29T05:01:13;10.07;;;4.65;;
37785;SDS011;23625;48.784;9.336;2023-05-29T05:03:40;10.77;;;4.90;;
37785;SDS011;23625;48.784;9.336;2023-05-29T05:06:06;9.38;;;4.72;;
37785;SDS011;23625;48.784;9.336;2023-05-29T05:08:32;17.60;;;4.85;;
37785;SDS011;23625;48.784;9.336;2023-05-29T05:10:59;14.50;;;5.55;;
37785;SDS011;23625;48.784;9.336;2023-05-29T05:13:25;8.65;;;4.75;;
37785;SDS011;23625;48.784;9.336;2023-05-29T05:15:51;10.60;;;4.80;;
37785;SDS011;23625;48.784;9.336;2023-05-29T05:18:17;14.18;;;4.82;;
37785;SDS011;23625;48.784;9.336;2023-05-29T05:20:43;12.13;;;4.45;;
37785;SDS011;23625;48.784;9.336;2023-05-29T05:23:09;11.20;;;4.88;;
37785;SDS011;23625;48.784;9.336;2023-05-29T05:25:35;11.93;;;5.40;;
37785;SDS011;23625;48.784;9.336;2023-05-29T05:28:02;18.50;;;5.85;;
37785;SDS011;23625;48.784;9.336;2023-05-29T05:30:30;11.27;;;5.75;;
37785;SDS011;23625;48.784;9.336;2023-05-29T05:32:57;13.48;;;5.30;;
37785;SDS011;23625;48.784;9.336;2023-05-29T05:35:23;11.15;;;4.60;;
37785;SDS011;23625;48.784;9.336;2023-05-29T05:37:49;9.52;;;4.57;;
37785;SDS011;23625;48.784;9.336;2023-05-29T05:40:14;16.95;;;5.55;;
37785;SDS011;23625;48.784;9.336;2023-05-29T05:42:40;9.38;;;5.25;;
37785;SDS011;23625;48.784;9.336;2023-05-29T05:45:06;20.75;;;5.47;;
37785;SDS011;23625;48.784;9.336;2023-05-29T05:47:32;11.80;;;5.50;;
37785;SDS011;23625;48.784;9.336;2023-05-29T05:49:58;10.48;;;5.28;;
37785;SDS011;23625;48.784;9.336;2023-05-29T05:52:24;11.73;;;5.88;;
37785;SDS011;23625;48.784;9.336;2023-05-29T05:54:56;14.80;;;5.57;;
37785;SDS011;23625;48.784;9.336;2023-05-29T05:57:22;17.17;;;5.43;;
37785;SDS011;23625;48.784;9.336;2023-05-29T05:59:47;15.57;;;5.40;;
37785;SDS011;23625;48.784;9.336;2023-05-29T06:02:13;12.43;;;5.85;;
37785;SDS011;23625;48.784;9.336;2023-05-29T06:04:38;12.15;;;5.47;;
37785;SDS011;23625;48.784;9.336;2023-05-29T06:07:05;10.10;;;5.38;;
37785;SDS011;23625;48.784;9.336;2023-05-29T06:09:31;18.55;;;5.68;;
37785;SDS011;23625;48.784;9.336;2023-05-29T06:11:56;14.75;;;5.10;;
37785;SDS011;23625;48.784;9.336;2023-05-29T06:14:23;17.67;;;5.50;;
37785;SDS011;23625;48.784;9.336;2023-05-29T06:16:49;14.18;;;6.38;;
37785;SDS011;23625;48.784;9.336;2023-05-29T06:19:15;10.88;;;6.13;;
37785;SDS011;23625;48.784;9.336;2023-05-29T06:21:41;13.77;;;5.80;;
37785;SDS011;23625;48.784;9.336;2023-05-29T06:24:06;11.68;;;5.40;;
37785;SDS011;23625;48.784;9.336;2023-05-29T06:26:32;15.85;;;5.53;;
37785;SDS011;23625;48.784;9.336;2023-05-29T06:28:58;12.00;;;5.90;;
37785;SDS011;23625;48.784;9.336;2023-05-29T06:31:23;12.80;;;5.18;;
37785;SDS011;23625;48.784;9.336;2023-05-29T06:33:49;19.20;;;6.05;;
37785;SDS011;23625;48.784;9.336;2023-05-29T06:36:15;17.77;;;6.47;;
37785;SDS011;23625;48.784;9.336;2023-05-29T06:38:45;14.00;;;5.72;;
37785;SDS011;23625;48.784;9.336;2023-05-29T06:41:12;12.48;;;5.43;;
37785;SDS011;23625;48.784;9.336;2023-05-29T06:43:37;13.95;;;5.05;;
37785;SDS011;23625;48.784;9.336;2023-05-29T06:46:03;14.90;;;5.18;;
37785;SDS011;23625;48.784;9.336;2023-05-29T06:48:32;11.20;;;5.25;;
37785;SDS011;23625;48.784;9.336;2023-05-29T06:50:58;14.20;;;5.07;;
37785;SDS011;23625;48.784;9.336;2023-05-29T06:53:24;12.85;;;5.10;;
37785;SDS011;23625;48.784;9.336;2023-05-29T06:55:50;9.85;;;4.95;;
37785;SDS011;23625;48.784;9.336;2023-05-29T06:58:15;19.17;;;6.15;;
37785;SDS011;23625;48.784;9.336;2023-05-29T07:00:41;12.15;;;5.20;;
37785;SDS011;23625;48.784;9.336;2023-05-29T07:03:06;13.95;;;5.22;;
37785;SDS011;23625;48.784;9.336;2023-05-29T07:05:32;9.60;;;4.60;;
37785;SDS011;23625;48.784;9.336;2023-05-29T07:07:57;11.00;;;4.75;;
37785;SDS011;23625;48.784;9.336;2023-05-29T07:10:23;12.13;;;4.53;;
37785;SDS011;23625;48.784;9.336;2023-05-29T07:12:48;9.05;;;4.75;;
37785;SDS011;23625;48.784;9.336;2023-05-29T07:15:14;12.02;;;4.50;;
37785;SDS011;23625;48.784;9.336;2023-05-29T07:17:40;11.05;;;5.07;;
37785;SDS011;23625;48.784;9.336;2023-05-29T07:20:05;12.93;;;5.70;;
37785;SDS011;23625;48.784;9.336;2023-05-29T07:22:33;11.02;;;5.07;;
37785;SDS011;23625;48.784;9.336;2023-05-29T07:24:59;11.80;;;5.45;;
37785;SDS011;23625;48.784;9.336;2023-05-29T07:27:25;8.77;;;4.72;;
37785;SDS011;23625;48.784;9.336;2023-05-29T07:29:51;11.02;;;4.75;;
37785;SDS011;23625;48.784;9.336;2023-05-29T07:32:16;16.30;;;5.88;;
37785;SDS011;23625;48.784;9.336;2023-05-29T07:34:42;19.80;;;5.80;;
37785;SDS011;23625;48.784;9.336;2023-05-29T07:37:07;11.07;;;5.88;;
37785;SDS011;23625;48.784;9.336;2023-05-29T07:39:34;10.60;;;4.88;;
37785;SDS011;23625;48.784;9.336;2023-05-29T07:42:00;20.27;;;5.65;;
37785;SDS011;23625;48.784;9.336;2023-05-29T07:44:27;9.70;;;4.47;;
37785;SDS011;23625;48.784;9.336;2023-05-29T07:46:53;11.73;;;5.10;;
37785;SDS011;23625;48.784;9.336;2023-05-29T07:49:19;8.68;;;5.00;;
37785;SDS011;23625;48.784;9.336;2023-05-29T07:51:45;11.00;;;5.60;;
37785;SDS011;23625;48.784;9.336;2023-05-29T07:54:11;12.73;;;5.03;;
37785;SDS011;23625;48.784;9.336;2023-05-29T07:56:37;11.15;;;5.07;;
37785;SDS011;23625;48.784;9.336;2023-05-29T07:59:03;12.35;;;5.20;;
37785;SDS011;23625;48.784;9.336;2023-05-29T08:01:30;13.77;;;5.13;;
37785;SDS011;23625;48.784;9.336;2023-05-29T08:03:56;15.10;;;5.50;;
37785;SDS011;23625;48.784;9.336;2023-05-29T08:06:21;11.40;;;5.15;;
37785;SDS011;23625;48.784;9.336;2023-05-29T08:08:47;7.57;;;4.05;;
37785;SDS011;23625;48.784;9.336;2023-05-29T08:11:13;11.90;;;5.35;;
37785;SDS011;23625;48.784;9.336;2023-05-29T08:13:38;11.30;;;5.82;;
37785;SDS011;23625;48.784;9.336;2023-05-29T08:16:04;8.93;;;4.55;;
37785;SDS011;23625;48.784;9.336;2023-05-29T08:18:30;10.93;;;4.75;;
37785;SDS011;23625;48.784;9.336;2023-05-29T08:20:57;9.57;;;4.88;;
37785;SDS011;23625;48.784;9.336;2023-05-29T08:23:23;14.00;;;5.45;;
37785;SDS011;23625;48.784;9.336;2023-05-29T08:25:49;11.25;;;4.78;;
37785;SDS011;23625;48.784;9.336;2023-05-29T08:28:15;11.95;;;5.22;;
37785;SDS011;23625;48.784;9.336;2023-05-29T08:30:41;11.20;;;5.20;;
37785;SDS011;23625;48.784;9.336;2023-05-29T08:33:06;15.07;;;4.75;;
37785;SDS011;23625;48.784;9.336;2023-05-29T08:35:32;10.52;;;5.53;;
37785;SDS011;23625;48.784;9.336;2023-05-29T08:37:58;13.45;;;5.25;;
37785;SDS011;23625;48.784;9.336;2023-05-29T08:40:25;11.30;;;4.72;;
37785;SDS011;23625;48.784;9.336;2023-05-29T08:43:01;8.75;;;4.78;;
37785;SDS011;23625;48.784;9.336;2023-05-29T08:45:32;9.60;;;4.57;;
37785;SDS011;23625;48.784;9.336;2023-05-29T08:48:00;11.90;;;4.57;;
37785;SDS011;23625;48.784;9.336;2023-05-29T08:50:26;11.18;;;4.90;;
37785;SDS011;23625;48.784;9.336;2023-05-29T08:52:52;10.30;;;5.15;;
37785;SDS011;23625;48.784;9.336;2023-05-29T08:55:17;11.68;;;5.63;;
37785;SDS011;23625;48.784;9.336;2023-05-29T08:57:43;8.45;;;4.82;;
37785;SDS011;23625;48.784;9.336;2023-05-29T09:00:09;11.75;;;4.47;;
37785;SDS011;23625;48.784;9.336;2023-05-29T09:02:40;14.00;;;5.50;;
37785;SDS011;23625;48.784;9.336;2023-05-29T09:05:08;11.10;;;4.57;;
37785;SDS011;23625;48.784;9.336;2023-05-29T09:07:35;8.77;;;4.32;;
37785;SDS011;23625;48.784;9.336;2023-05-29T09:10:04;10.90;;;5.20;;
37785;SDS011;23625;48.784;9.336;2023-05-29T09:12:40;13.48;;;4.95;;
37785;SDS011;23625;48.784;9.336;2023-05-29T09:15:19;13.05;;;5.20;;
37785;SDS011;23625;48.784;9.336;2023-05-29T09:17:55;13.40;;;4.95;;
37785;SDS011;23625;48.784;9.336;2023-05-29T09:20:22;11.07;;;5.15;;
37785;SDS011;23625;48.784;9.336;2023-05-29T09:22:55;9.55;;;4.95;;
37785;SDS011;23625;48.784;9.336;2023-05-29T09:25:23;11.57;;;5.40;;
37785;SDS011;23625;48.784;9.336;2023-05-29T09:27:52;11.93;;;5.05;;
37785;SDS011;23625;48.784;9.336;2023-05-29T09:30:33;11.85;;;5.25;;
37785;SDS011;23625;48.784;9.336;2023-05-29T09:32:59;9.20;;;4.30;;
37785;SDS011;23625;48.784;9.336;2023-05-29T09:35:31;11.10;;;4.65;;
37785;SDS011;23625;48.784;9.336;2023-05-29T09:37:58;12.07;;;4.85;;
37785;SDS011;23625;48.784;9.336;2023-05-29T09:40:24;11.18;;;4.90;;
37785;SDS011;23625;48.784;9.336;2023-05-29T09:42:50;12.15;;;5.50;;
37785;SDS011;23625;48.784;9.336;2023-05-29T09:45:19;17.17;;;5.45;;
37785;SDS011;23625;48.784;9.336;2023-05-29T09:47:46;12.00;;;5.20;;
37785;SDS011;23625;48.784;9.336;2023-05-29T09:50:18;8.40;;;4.68;;
37785;SDS011;23625;48.784;9.336;2023-05-29T09:52:47;10.10;;;4.38;;
37785;SDS011;23625;48.784;9.336;2023-05-29T09:55:17;7.60;;;4.15;;
37785;SDS011;23625;48.784;9.336;2023-05-29T09:57:46;8.35;;;4.60;;
37785;SDS011;23625;48.784;9.336;2023-05-29T10:00:15;12.50;;;4.85;;
37785;SDS011;23625;48.784;9.336;2023-05-29T10:02:42;8.45;;;4.18;;
37785;SDS011;23625;48.784;9.336;2023-05-29T10:05:08;9.60;;;3.95;;
37785;SDS011;23625;48.784;9.336;2023-05-29T10:07:36;11.18;;;5.00;;
37785;SDS011;23625;48.784;9.336;2023-05-29T10:10:03;12.93;;;7.53;;
37785;SDS011;23625;48.784;9.336;2023-05-29T10:12:32;11.13;;;4.35;;
37785;SDS011;23625;48.784;9.336;2023-05-29T10:15:05;8.48;;;4.60;;
37785;SDS011;23625;48.784;9.336;2023-05-29T10:17:36;8.63;;;4.35;;
37785;SDS011;23625;48.784;9.336;2023-05-29T10:20:05;9.73;;;4.50;;
37785;SDS011;23625;48.784;9.336;2023-05-29T10:22:37;10.27;;;3.97;;
37785;SDS011;23625;48.784;9.336;2023-05-29T10:25:09;10.57;;;4.28;;
37785;SDS011;23625;48.784;9.336;2023-05-29T10:27:38;10.80;;;3.90;;
37785;SDS011;23625;48.784;9.336;2023-05-29T10:30:06;11.10;;;3.78;;
37785;SDS011;23625;48.784;9.336;2023-05-29T10:32:55;9.60;;;3.90;;
37785;SDS011;23625;48.784;9.336;2023-05-29T10:35:44;9.90;;;3.85;;
37785;SDS011;23625;48.784;9.336;2023-05-29T10:38:13;7.65;;;3.95;;
37785;SDS011;23625;48.784;9.336;2023-05-29T10:40:42;12.25;;;4.47;;
37785;SDS011;23625;48.784;9.336;2023-05-29T10:43:08;8.65;;;3.92;;
37785;SDS011;23625;48.784;9.336;2023-05-29T10:53:08;5.88;;;3.20;;
37785;SDS011;23625;48.784;9.336;2023-05-29T10:55:35;8.80;;;3.55;;
37785;SDS011;23625;48.784;9.336;2023-05-29T10:58:08;10.60;;;3.80;;
37785;SDS011;23625;48.784;9.336;2023-05-29T11:00:50;11.07;;;4.30;;
37785;SDS011;23625;48.784;9.336;2023-05-29T11:03:25;8.27;;;3.45;;
37785;SDS011;23625;48.784;9.336;2023-05-29T11:05:56;8.13;;;3.88;;
37785;SDS011;23625;48.784;9.336;2023-05-29T11:08:34;10.88;;;3.60;;
37785;SDS011;23625;48.784;9.336;2023-05-29T11:11:01;6.25;;;3.20;;
37785;SDS011;23625;48.784;9.336;2023-05-29T11:13:31;9.50;;;3.70;;
37785;SDS011;23625;48.784;9.336;2023-05-29T11:18:46;7.43;;;3.80;;
37785;SDS011;23625;48.784;9.336;2023-05-29T11:21:23;7.10;;;4.05;;
37785;SDS011;23625;48.784;9.336;2023-05-29T11:24:13;5.57;;;3.58;;
37785;SDS011;23625;48.784;9.336;2023-05-29T11:26:58;9.15;;;3.55;;
37785;SDS011;23625;48.784;9.336;2023-05-29T11:29:29;5.82;;;3.53;;
37785;SDS011;23625;48.784;9.336;2023-05-29T11:34:28;9.00;;;3.58;;
37785;SDS011;23625;48.784;9.336;2023-05-29T11:37:01;5.40;;;3.33;;
37785;SDS011;23625;48.784;9.336;2023-05-29T11:39:28;7.28;;;3.10;;
37785;SDS011;23625;48.784;9.336;2023-05-29T11:41:54;8.95;;;3.17;;
37785;SDS011;23625;48.784;9.336;2023-05-29T11:44:20;7.65;;;3.17;;
37785;SDS011;23625;48.784;9.336;2023-05-29T11:46:58;11.65;;;4.47;;
37785;SDS011;23625;48.784;9.336;2023-05-29T11:49:27;6.63;;;3.35;;
37785;SDS011;23625;48.784;9.336;2023-05-29T11:52:08;6.97;;;3.65;;
37785;SDS011;23625;48.784;9.336;2023-05-29T11:54:35;7.03;;;3.13;;
37785;SDS011;23625;48.784;9.336;2023-05-29T11:57:02;7.00;;;3.63;;
37785;SDS011;23625;48.784;9.336;2023-05-29T11:59:30;9.13;;;2.90;;
37785;SDS011;23625;48.784;9.336;2023-05-29T12:01:59;7.88;;;3.10;;
37785;SDS011;23625;48.784;9.336;2023-05-29T12:04:28;4.65;;;3.00;;
37785;SDS011;23625;48.784;9.336;2023-05-29T12:06:53;6.70;;;3.53;;
37785;SDS011;23625;48.784;9.336;2023-05-29T12:09:23;8.02;;;3.47;;
37785;SDS011;23625;48.784;9.336;2023-05-29T12:12:01;5.22;;;2.75;;
37785;SDS011;23625;48.784;9.336;2023-05-29T12:14:27;5.25;;;2.90;;
37785;SDS011;23625;48.784;9.336;2023-05-29T12:16:53;7.78;;;3.33;;
37785;SDS011;23625;48.784;9.336;2023-05-29T12:19:18;7.07;;;2.97;;
37785;SDS011;23625;48.784;9.336;2023-05-29T12:21:44;6.75;;;3.40;;
37785;SDS011;23625;48.784;9.336;2023-05-29T12:24:10;8.45;;;3.70;;
37785;SDS011;23625;48.784;9.336;2023-05-29T12:26:36;8.63;;;2.95;;
37785;SDS011;23625;48.784;9.336;2023-05-29T12:29:02;5.00;;;3.03;;
37785;SDS011;23625;48.784;9.336;2023-05-29T12:31:29;5.82;;;2.83;;
37785;SDS011;23625;48.784;9.336;2023-05-29T12:34:02;8.02;;;3.10;;
37785;SDS011;23625;48.784;9.336;2023-05-29T12:36:33;7.82;;;3.35;;
37785;SDS011;23625;48.784;9.336;2023-05-29T12:38:59;6.18;;;3.45;;
37785;SDS011;23625;48.784;9.336;2023-05-29T12:41:29;9.00;;;3.40;;
37785;SDS011;23625;48.784;9.336;2023-05-29T12:43:58;5.57;;;3.45;;
37785;SDS011;23625;48.784;9.336;2023-05-29T12:46:26;10.55;;;3.72;;
37785;SDS011;23625;48.784;9.336;2023-05-29T12:48:53;6.03;;;3.72;;
37785;SDS011;23625;48.784;9.336;2023-05-29T12:51:23;5.85;;;3.47;;
37785;SDS011;23625;48.784;9.336;2023-05-29T12:53:50;7.60;;;3.90;;
37785;SDS011;23625;48.784;9.336;2023-05-29T12:56:18;10.65;;;3.85;;
37785;SDS011;23625;48.784;9.336;2023-05-29T12:58:44;5.50;;;3.20;;
37785;SDS011;23625;48.784;9.336;2023-05-29T13:01:12;6.00;;;3.38;;
37785;SDS011;23625;48.784;9.336;2023-05-29T13:03:39;5.85;;;3.50;;
37785;SDS011;23625;48.784;9.336;2023-05-29T13:06:05;10.35;;;3.47;;
37785;SDS011;23625;48.784;9.336;2023-05-29T13:08:31;4.07;;;3.15;;
37785;SDS011;23625;48.784;9.336;2023-05-29T13:10:56;9.90;;;3.45;;
37785;SDS011;23625;48.784;9.336;2023-05-29T13:13:22;5.43;;;3.22;;
37785;SDS011;23625;48.784;9.336;2023-05-29T13:15:48;5.25;;;3.50;;
37785;SDS011;23625;48.784;9.336;2023-05-29T13:18:14;6.35;;;3.83;;
37785;SDS011;23625;48.784;9.336;2023-05-29T13:20:40;5.97;;;3.72;;
37785;SDS011;23625;48.784;9.336;2023-05-29T13:23:05;4.97;;;3.40;;
37785;SDS011;23625;48.784;9.336;2023-05-29T13:25:33;6.32;;;3.55;;
37785;SDS011;23625;48.784;9.336;2023-05-29T13:27:59;10.65;;;3.63;;
37785;SDS011;23625;48.784;9.336;2023-05-29T13:30:25;6.57;;;3.80;;
37785;SDS011;23625;48.784;9.336;2023-05-29T13:32:51;8.40;;;4.03;;
37785;SDS011;23625;48.784;9.336;2023-05-29T13:35:17;11.18;;;3.78;;
37785;SDS011;23625;48.784;9.336;2023-05-29T13:37:43;5.35;;;3.08;;
37785;SDS011;23625;48.784;9.336;2023-05-29T13:40:09;7.25;;;3.58;;
37785;SDS011;23625;48.784;9.336;2023-05-29T13:42:35;4.28;;;2.95;;
37785;SDS011;23625;48.784;9.336;2023-05-29T13:45:01;6.22;;;3.75;;
37785;SDS011;23625;48.784;9.336;2023-05-29T13:47:27;6.10;;;3.70;;
37785;SDS011;23625;48.784;9.336;2023-05-29T13:49:57;11.95;;;3.83;;
37785;SDS011;23625;48.784;9.336;2023-05-29T13:52:22;7.28;;;3.20;;
37785;SDS011;23625;48.784;9.336;2023-05-29T13:54:49;7.60;;;3.28;;
37785;SDS011;23625;48.784;9.336;2023-05-29T13:57:14;7.20;;;3.78;;
37785;SDS011;23625;48.784;9.336;2023-05-29T13:59:40;7.13;;;3.55;;
37785;SDS011;23625;48.784;9.336;2023-05-29T14:02:06;5.90;;;3.55;;
37785;SDS011;23625;48.784;9.336;2023-05-29T14:04:33;6.68;;;3.50;;
37785;SDS011;23625;48.784;9.336;2023-05-29T14:06:59;8.10;;;3.30;;
37785;SDS011;23625;48.784;9.336;2023-05-29T14:09:25;5.45;;;3.47;;
37785;SDS011;23625;48.784;9.336;2023-05-29T14:11:55;8.02;;;4.13;;
37785;SDS011;23625;48.784;9.336;2023-05-29T14:14:22;5.03;;;3.30;;
37785;SDS011;23625;48.784;9.336;2023-05-29T14:16:50;5.63;;;3.30;;
37785;SDS011;23625;48.784;9.336;2023-05-29T14:19:16;5.30;;;3.60;;
37785;SDS011;23625;48.784;9.336;2023-05-29T14:21:43;7.05;;;3.35;;
37785;SDS011;23625;48.784;9.336;2023-05-29T14:24:08;8.35;;;3.67;;
37785;SDS011;23625;48.784;9.336;2023-05-29T14:26:34;9.75;;;3.40;;
37785;SDS011;23625;48.784;9.336;2023-05-29T14:29:00;7.45;;;3.78;;
37785;SDS011;23625;48.784;9.336;2023-05-29T14:31:26;10.77;;;3.58;;
37785;SDS011;23625;48.784;9.336;2023-05-29T14:33:51;7.88;;;3.15;;
37785;SDS011;23625;48.784;9.336;2023-05-29T14:36:17;8.15;;;3.38;;
37785;SDS011;23625;48.784;9.336;2023-05-29T14:38:42;8.30;;;3.58;;
37785;SDS011;23625;48.784;9.336;2023-05-29T14:41:09;7.78;;;3.90;;
37785;SDS011;23625;48.784;9.336;2023-05-29T14:43:35;6.03;;;3.50;;
37785;SDS011;23625;48.784;9.336;2023-05-29T14:46:02;9.38;;;3.55;;
37785;SDS011;23625;48.784;9.336;2023-05-29T14:48:28;7.10;;;3.65;;
37785;SDS011;23625;48.784;9.336;2023-05-29T14:50:54;5.95;;;3.25;;
37785;SDS011;23625;48.784;9.336;2023-05-29T14:53:19;9.98;;;3.72;;
37785;SDS011;23625;48.784;9.336;2023-05-29T14:55:47;5.60;;;3.28;;
37785;SDS011;23625;48.784;9.336;2023-05-29T14:58:13;4.78;;;2.97;;
37785;SDS011;23625;48.784;9.336;2023-05-29T15:00:39;5.90;;;3.42;;
37785;SDS011;23625;48.784;9.336;2023-05-29T15:03:05;12.50;;;3.75;;
37785;SDS011;23625;48.784;9.336;2023-05-29T15:05:30;8.55;;;3.50;;
37785;SDS011;23625;48.784;9.336;2023-05-29T15:07:56;7.93;;;2.97;;